createdAt,value
2017-04-15T00:00:51.162Z,99.99
2017-04-15T00:01:51.422Z,99.99
2017-04-15T00:02:51.143Z,99.99
2017-04-15T00:03:51.131Z,99.99
2017-04-15T00:04:50.899Z,99.99
2017-04-15T00:05:51.106Z,99.99
2017-04-15T00:06:51.098Z,99.99
2017-04-15T00:07:51.354Z,99.99
2017-04-15T00:08:51.075Z,99.99
2017-04-15T00:09:51.065Z,99.99
2017-04-15T00:10:51.110Z,99.99
2017-04-15T00:11:51.042Z,99.99
2017-04-15T00:12:50.717Z,99.99
2017-04-15T00:13:51.079Z,99.99
2017-04-15T00:14:51.014Z,99.99
2017-04-15T00:15:50.998Z,99.99
2017-04-15T00:16:51.092Z,99.99
2017-04-15T00:17:50.977Z,99.99
2017-04-15T00:18:50.649Z,99.99
2017-04-15T00:19:50.950Z,99.99
2017-04-15T00:20:50.627Z,99.99
2017-04-15T00:21:50.930Z,99.99
2017-04-15T00:22:50.672Z,99.99
2017-04-15T00:23:50.905Z,99.99
2017-04-15T00:24:51.092Z,99.99
2017-04-15T00:25:50.888Z,99.99
2017-04-15T00:26:50.872Z,99.99
2017-04-15T00:27:50.882Z,99.99
2017-04-15T00:28:50.853Z,99.99
2017-04-15T00:29:50.843Z,99.99
2017-04-15T00:30:50.836Z,99.99
2017-04-15T00:31:50.818Z,99.99
2017-04-15T00:32:50.812Z,99.99
2017-04-15T00:33:50.800Z,99.99
2017-04-15T00:34:50.469Z,99.99
2017-04-15T00:35:50.776Z,99.99
2017-04-15T00:36:50.761Z,99.99
2017-04-15T00:37:50.753Z,99.99
2017-04-15T00:38:50.499Z,99.99
2017-04-15T00:39:50.729Z,99.99
2017-04-15T00:40:50.726Z,99.99
2017-04-15T00:41:50.707Z,99.99
2017-04-15T00:42:50.695Z,99.99
2017-04-15T00:43:50.682Z,99.99
2017-04-15T00:44:50.751Z,99.99
2017-04-15T00:45:50.661Z,99.99
2017-04-15T00:46:50.650Z,99.99
2017-04-15T00:47:50.805Z,99.99
2017-04-15T00:48:50.633Z,99.99
2017-04-15T00:49:50.614Z,99.99
2017-04-15T00:50:50.410Z,99.99
2017-04-15T00:51:50.595Z,99.99
2017-04-15T00:52:50.584Z,99.99
2017-04-15T00:53:50.612Z,99.99
2017-04-15T00:54:50.561Z,99.99
2017-04-15T00:55:50.548Z,99.99
2017-04-15T00:56:50.550Z,99.99
2017-04-15T00:57:50.528Z,99.99
2017-04-15T00:58:50.514Z,99.99
2017-04-15T00:59:50.503Z,99.99
2017-04-15T01:00:50.490Z,99.99
2017-04-15T01:01:50.478Z,99.99
2017-04-15T01:02:50.478Z,99.99
2017-04-15T01:03:50.456Z,99.99
2017-04-15T01:04:50.439Z,99.99
2017-04-15T01:05:50.756Z,99.99
2017-04-15T01:06:50.419Z,99.99
2017-04-15T01:07:50.414Z,99.99
2017-04-15T01:08:50.648Z,99.99
2017-04-15T01:09:50.387Z,99.99
2017-04-15T01:10:50.383Z,99.99
2017-04-15T01:11:50.901Z,99.99
2017-04-15T01:12:50.354Z,99.99
2017-04-15T01:13:50.344Z,99.99
2017-04-15T01:14:50.741Z,99.99
2017-04-15T01:15:50.003Z,99.99
2017-04-15T01:16:50.307Z,99.99
2017-04-15T01:17:50.643Z,99.99
2017-04-15T01:18:50.298Z,99.99
2017-04-15T01:19:50.270Z,99.99
2017-04-15T01:20:50.250Z,99.99
2017-04-15T01:21:50.249Z,99.99
2017-04-15T01:22:50.244Z,99.99
2017-04-15T01:23:50.323Z,99.99
2017-04-15T01:24:50.215Z,99.99
2017-04-15T01:25:50.203Z,99.99
2017-04-15T01:26:50.386Z,99.99
2017-04-15T01:27:50.182Z,99.99
2017-04-15T01:28:50.172Z,99.99
2017-04-15T01:29:50.007Z,99.99
2017-04-15T01:30:50.145Z,99.99
2017-04-15T01:31:50.133Z,99.99
2017-04-15T01:32:50.246Z,99.99
2017-04-15T01:33:50.113Z,99.99
2017-04-15T01:34:49.785Z,99.99
2017-04-15T01:35:50.571Z,99.99
2017-04-15T01:36:50.080Z,99.99
2017-04-15T01:37:50.071Z,99.99
2017-04-15T01:38:50.700Z,99.99
2017-04-15T01:39:50.041Z,99.99
2017-04-15T01:40:49.715Z,99.99
2017-04-15T01:41:50.543Z,99.99
2017-04-15T01:42:50.008Z,99.99
2017-04-15T01:43:49.995Z,99.99
2017-04-15T01:44:50.474Z,99.99
2017-04-15T01:45:49.972Z,99.99
2017-04-15T01:46:49.961Z,99.99
2017-04-15T01:47:50.504Z,99.99
2017-04-15T01:48:49.939Z,99.99
2017-04-15T01:49:49.612Z,99.99
2017-04-15T01:50:50.038Z,99.99
2017-04-15T01:51:49.903Z,99.99
2017-04-15T01:52:49.892Z,99.99
2017-04-15T01:53:50.374Z,99.99
2017-04-15T01:54:49.869Z,99.99
2017-04-15T01:55:49.856Z,99.99
2017-04-15T01:56:50.249Z,99.99
2017-04-15T01:57:49.836Z,99.99
2017-04-15T01:58:49.822Z,99.99
2017-04-15T01:59:49.812Z,99.99
2017-04-15T02:00:49.838Z,99.99
2017-04-15T02:01:49.789Z,99.99
2017-04-15T02:02:49.469Z,99.99
2017-04-15T02:03:49.766Z,99.99
2017-04-15T02:04:49.753Z,99.99
2017-04-15T02:05:49.745Z,99.99
2017-04-15T02:06:49.729Z,99.99
2017-04-15T02:07:49.721Z,99.99
2017-04-15T02:08:49.707Z,99.99
2017-04-15T02:09:49.694Z,99.99
2017-04-15T02:10:49.680Z,99.99
2017-04-15T02:11:49.367Z,99.99
2017-04-15T02:12:49.659Z,99.99
2017-04-15T02:13:49.335Z,99.99
2017-04-15T02:14:49.639Z,99.99
2017-04-15T02:15:49.311Z,99.99
2017-04-15T02:16:49.298Z,99.99
2017-04-15T02:17:49.288Z,99.99
2017-04-15T02:18:49.590Z,99.99
2017-04-15T02:19:49.578Z,99.99
2017-04-15T02:20:49.570Z,99.99
2017-04-15T02:21:49.556Z,99.99
2017-04-15T02:22:49.544Z,99.99
2017-04-15T02:23:49.537Z,99.99
2017-04-15T02:24:49.528Z,99.99
2017-04-15T02:25:49.513Z,99.99
2017-04-15T02:26:49.500Z,99.99
2017-04-15T02:27:49.487Z,99.99
2017-04-15T02:28:49.165Z,99.99
2017-04-15T02:29:49.465Z,99.99
2017-04-15T02:30:49.138Z,99.99
2017-04-15T02:31:49.444Z,99.99
2017-04-15T02:32:49.434Z,99.99
2017-04-15T02:33:49.424Z,99.99
2017-04-15T02:34:49.407Z,99.99
2017-04-15T02:35:49.082Z,99.99
2017-04-15T02:36:49.384Z,99.99
2017-04-15T02:37:49.373Z,99.99
2017-04-15T02:38:49.366Z,99.99
2017-04-15T02:39:49.349Z,99.99
2017-04-15T02:40:49.337Z,99.99
2017-04-15T02:41:49.329Z,99.99
2017-04-15T02:42:49.318Z,99.99
2017-04-15T02:43:49.308Z,99.99
2017-04-15T02:44:48.981Z,99.99
2017-04-15T02:45:49.282Z,99.99
2017-04-15T02:46:49.269Z,99.99
2017-04-15T02:47:49.264Z,99.99
2017-04-15T02:48:49.250Z,99.99
2017-04-15T02:49:49.236Z,99.99
2017-04-15T02:50:49.225Z,99.99
2017-04-15T02:51:49.214Z,99.99
2017-04-15T02:52:49.208Z,99.99
2017-04-15T02:53:49.191Z,99.99
2017-04-15T02:54:49.179Z,99.99
2017-04-15T02:55:48.869Z,99.99
2017-04-15T02:56:49.156Z,99.99
2017-04-15T02:57:48.834Z,99.99
2017-04-15T02:58:49.135Z,99.99
2017-04-15T02:59:48.808Z,99.99
2017-04-15T03:00:49.116Z,99.99
2017-04-15T03:01:49.099Z,99.99
2017-04-15T03:02:49.087Z,99.99
2017-04-15T03:03:49.075Z,99.99
2017-04-15T03:04:49.062Z,99.99
2017-04-15T03:05:49.053Z,99.99
2017-04-15T03:06:49.042Z,99.99
2017-04-15T03:07:49.032Z,99.99
2017-04-15T03:08:49.028Z,99.99
2017-04-15T03:09:49.010Z,99.99
2017-04-15T03:10:48.997Z,99.99
2017-04-15T03:11:48.984Z,99.99
2017-04-15T03:12:48.982Z,99.99
2017-04-15T03:13:48.963Z,99.99
2017-04-15T03:14:48.952Z,99.99
2017-04-15T03:15:48.936Z,99.99
2017-04-15T03:16:48.929Z,99.99
2017-04-15T03:17:48.918Z,99.99
2017-04-15T03:18:48.591Z,99.99
2017-04-15T03:19:48.892Z,99.99
2017-04-15T03:20:48.884Z,99.99
2017-04-15T03:21:48.873Z,99.99
2017-04-15T03:22:48.859Z,99.99
2017-04-15T03:23:48.851Z,99.99
2017-04-15T03:24:48.837Z,99.99
2017-04-15T03:25:48.830Z,99.99
2017-04-15T03:26:48.815Z,99.99
2017-04-15T03:27:48.803Z,99.99
2017-04-15T03:28:48.792Z,99.99
2017-04-15T03:29:48.781Z,99.99
2017-04-15T03:30:48.769Z,99.99
2017-04-15T03:31:48.442Z,99.99
2017-04-15T03:32:48.748Z,99.99
2017-04-15T03:33:48.735Z,99.99
2017-04-15T03:34:48.728Z,99.99
2017-04-15T03:35:48.713Z,99.99
2017-04-15T03:36:48.702Z,99.99
2017-04-15T03:37:48.690Z,99.99
2017-04-15T03:38:48.694Z,99.99
2017-04-15T03:39:48.667Z,99.99
2017-04-15T03:40:48.655Z,99.99
2017-04-15T03:41:48.644Z,99.99
2017-04-15T03:42:48.322Z,99.99
2017-04-15T03:43:48.312Z,99.99
2017-04-15T03:44:48.618Z,99.99
2017-04-15T03:45:48.610Z,99.99
2017-04-15T03:46:48.585Z,99.99
2017-04-15T03:47:48.579Z,99.99
2017-04-15T03:48:48.565Z,99.99
2017-04-15T03:49:48.556Z,99.99
2017-04-15T03:50:48.542Z,99.99
2017-04-15T03:51:48.528Z,99.99
2017-04-15T03:52:48.522Z,99.99
2017-04-15T03:53:48.510Z,99.99
2017-04-15T03:54:48.499Z,99.99
2017-04-15T03:55:48.486Z,99.99
2017-04-15T03:56:48.473Z,99.99
2017-04-15T03:57:48.463Z,99.99
2017-04-15T03:58:48.454Z,99.99
2017-04-15T03:59:48.441Z,99.99
2017-04-15T04:00:48.114Z,99.99
2017-04-15T04:01:48.417Z,99.99
2017-04-15T04:02:48.415Z,99.99
2017-04-15T04:03:48.396Z,99.99
2017-04-15T04:04:48.382Z,99.99
2017-04-15T04:05:48.372Z,99.99
2017-04-15T04:06:48.364Z,99.99
2017-04-15T04:07:48.354Z,99.99
2017-04-15T04:08:48.342Z,99.99
2017-04-15T04:09:48.328Z,99.99
2017-04-15T04:10:48.322Z,99.99
2017-04-15T04:11:48.303Z,99.99
2017-04-15T04:12:48.298Z,99.99
2017-04-15T04:13:48.391Z,99.99
2017-04-15T04:14:47.959Z,99.99
2017-04-15T04:15:48.257Z,99.99
2017-04-15T04:16:48.260Z,99.99
2017-04-15T04:17:48.235Z,99.99
2017-04-15T04:18:48.233Z,99.99
2017-04-15T04:19:48.216Z,99.99
2017-04-15T04:20:48.203Z,99.99
2017-04-15T04:21:48.190Z,99.99
2017-04-15T04:22:48.178Z,99.99
2017-04-15T04:23:48.167Z,99.99
2017-04-15T04:24:48.158Z,99.99
2017-04-15T04:25:48.144Z,99.99
2017-04-15T04:26:48.134Z,99.99
2017-04-15T04:27:48.125Z,99.99
2017-04-15T04:28:48.112Z,99.99
2017-04-15T04:29:48.099Z,99.99
2017-04-15T04:30:48.088Z,99.99
2017-04-15T04:31:48.198Z,99.99
2017-04-15T04:32:48.066Z,99.99
2017-04-15T04:33:48.053Z,99.99
2017-04-15T04:34:48.042Z,99.99
2017-04-15T04:35:48.031Z,99.99
2017-04-15T04:36:48.155Z,99.99
2017-04-15T04:37:48.481Z,99.99
2017-04-15T04:38:48.469Z,99.99
2017-04-15T04:39:48.452Z,99.99
2017-04-15T04:40:47.973Z,99.99
2017-04-15T04:41:47.961Z,99.99
2017-04-15T04:42:47.951Z,99.99
2017-04-15T04:43:48.079Z,99.99
2017-04-15T04:44:48.031Z,99.99
2017-04-15T04:45:48.194Z,99.99
2017-04-15T04:46:48.061Z,99.99
2017-04-15T04:47:48.063Z,99.99
2017-04-15T04:48:48.296Z,99.99
2017-04-15T04:49:48.036Z,99.99
2017-04-15T04:50:48.103Z,99.99
2017-04-15T04:51:48.195Z,99.99
2017-04-15T04:52:47.792Z,99.99
2017-04-15T04:53:47.828Z,99.99
2017-04-15T04:54:47.811Z,99.99
2017-04-15T04:55:47.798Z,99.99
2017-04-15T04:56:47.791Z,99.99
2017-04-15T04:57:47.778Z,99.99
2017-04-15T04:58:47.799Z,99.99
2017-04-15T04:59:47.729Z,99.99
2017-04-15T05:00:47.750Z,99.99
2017-04-15T05:01:47.819Z,99.99
2017-04-15T05:02:47.631Z,99.99
2017-04-15T05:03:47.774Z,99.99
2017-04-15T05:04:48.063Z,99.99
2017-04-15T05:05:47.690Z,99.99
2017-04-15T05:06:47.367Z,99.99
2017-04-15T05:07:47.663Z,99.99
2017-04-15T05:08:47.714Z,99.99
2017-04-15T05:09:48.047Z,99.99
2017-04-15T05:10:47.700Z,99.99
2017-04-15T05:11:47.878Z,99.99
2017-04-15T05:12:47.700Z,99.99
2017-04-15T05:13:47.605Z,99.99
2017-04-15T05:14:47.593Z,99.99
2017-04-15T05:15:47.574Z,99.99
2017-04-15T05:16:47.713Z,99.99
2017-04-15T05:17:48.075Z,99.99
2017-04-15T05:18:47.965Z,99.99
2017-04-15T05:19:47.901Z,99.99
2017-04-15T05:20:47.919Z,99.99
2017-04-15T05:21:47.506Z,99.99
2017-04-15T05:22:47.495Z,99.99
2017-04-15T05:23:47.483Z,99.99
2017-04-15T05:24:47.473Z,99.99
2017-04-15T05:25:47.462Z,99.99
2017-04-15T05:26:47.448Z,99.99
2017-04-15T05:27:47.246Z,99.99
2017-04-15T05:28:47.821Z,99.99
2017-04-15T05:29:47.814Z,99.99
2017-04-15T05:30:47.669Z,99.99
2017-04-15T05:31:47.495Z,99.99
2017-04-15T05:32:47.228Z,99.99
2017-04-15T05:33:47.378Z,99.99
2017-04-15T05:34:47.363Z,99.99
2017-04-15T05:35:47.352Z,99.99
2017-04-15T05:36:47.344Z,99.99
2017-04-15T05:37:47.457Z,99.99
2017-04-15T05:38:47.322Z,99.99
2017-04-15T05:39:47.510Z,99.99
2017-04-15T05:40:47.594Z,99.99
2017-04-15T05:41:47.743Z,99.99
2017-04-15T05:42:47.426Z,99.99
2017-04-15T05:43:47.267Z,99.99
2017-04-15T05:44:47.254Z,99.99
2017-04-15T05:45:47.248Z,99.99
2017-04-15T05:46:47.236Z,99.99
2017-04-15T05:47:47.240Z,99.99
2017-04-15T05:48:47.215Z,99.99
2017-04-15T05:49:47.204Z,99.99
2017-04-15T05:50:47.201Z,99.99
2017-04-15T05:51:47.181Z,99.99
2017-04-15T05:52:46.858Z,99.99
2017-04-15T05:53:47.160Z,99.99
2017-04-15T05:54:47.152Z,99.99
2017-04-15T05:55:46.825Z,99.99
2017-04-15T05:56:47.129Z,99.99
2017-04-15T05:57:46.805Z,99.99
2017-04-15T05:58:47.108Z,99.99
2017-04-15T05:59:47.097Z,99.99
2017-04-15T06:00:47.085Z,99.99
2017-04-15T06:01:47.104Z,99.99
2017-04-15T06:02:47.069Z,99.99
2017-04-15T06:03:47.059Z,99.99
2017-04-15T06:04:47.047Z,99.99
2017-04-15T06:05:47.036Z,99.99
2017-04-15T06:06:47.030Z,99.99
2017-04-15T06:07:47.016Z,99.99
2017-04-15T06:08:47.006Z,99.99
2017-04-15T06:09:46.999Z,99.99
2017-04-15T06:10:46.990Z,99.99
2017-04-15T06:11:46.978Z,99.99
2017-04-15T06:12:46.975Z,99.99
2017-04-15T06:13:46.958Z,99.99
2017-04-15T06:14:46.948Z,99.99
2017-04-15T06:15:46.939Z,99.99
2017-04-15T06:16:46.925Z,99.99
2017-04-15T06:17:46.914Z,99.99
2017-04-15T06:18:46.908Z,99.99
2017-04-15T06:19:46.897Z,99.99
2017-04-15T06:20:46.891Z,99.99
2017-04-15T06:21:46.881Z,99.99
2017-04-15T06:22:46.870Z,99.99
2017-04-15T06:23:46.861Z,99.99
2017-04-15T06:24:46.858Z,99.99
2017-04-15T06:25:46.842Z,99.99
2017-04-15T06:26:46.834Z,99.99
2017-04-15T06:27:46.822Z,99.99
2017-04-15T06:28:46.813Z,99.99
2017-04-15T06:29:46.803Z,99.99
2017-04-15T06:30:46.796Z,99.99
2017-04-15T06:31:46.784Z,99.99
2017-04-15T06:32:46.779Z,99.99
2017-04-15T06:33:46.769Z,99.99
2017-04-15T06:34:46.443Z,99.99
2017-04-15T06:35:46.747Z,99.99
2017-04-15T06:36:46.738Z,99.99
2017-04-15T06:37:46.732Z,99.99
2017-04-15T06:38:46.721Z,99.99
2017-04-15T06:39:46.711Z,99.99
2017-04-15T06:40:46.388Z,99.99
2017-04-15T06:41:46.699Z,99.99
2017-04-15T06:42:46.684Z,99.99
2017-04-15T06:43:46.676Z,99.99
2017-04-15T06:44:46.666Z,99.99
2017-04-15T06:45:46.655Z,99.99
2017-04-15T06:46:46.647Z,99.99
2017-04-15T06:47:46.639Z,99.08
2017-04-15T06:48:46.632Z,97.75
2017-04-15T06:49:46.619Z,96.03
2017-04-15T06:50:46.615Z,93.41
2017-04-15T06:51:46.603Z,89.5
2017-04-15T06:52:46.597Z,88.36
2017-04-15T06:53:46.588Z,86.16
2017-04-15T06:54:46.576Z,85.41
2017-04-15T06:55:46.568Z,82.01
2017-04-15T06:56:46.562Z,82.01
2017-04-15T06:57:46.556Z,81.15
2017-04-15T06:58:46.548Z,80.39
2017-04-15T06:59:46.225Z,81.92
2017-04-15T07:00:46.535Z,76.67
2017-04-15T07:01:46.523Z,71.33
2017-04-15T07:02:46.526Z,73.33
2017-04-15T07:03:46.515Z,71.72
2017-04-15T07:04:46.501Z,76.86
2017-04-15T07:05:46.493Z,78.39
2017-04-15T07:06:46.485Z,75.15
2017-04-15T07:07:46.480Z,74.57
2017-04-15T07:08:46.472Z,75.91
2017-04-15T07:09:46.463Z,73.14
2017-04-15T07:10:46.459Z,72.19
2017-04-15T07:11:46.453Z,71.81
2017-04-15T07:12:46.444Z,69.74
2017-04-15T07:13:46.440Z,70.51
2017-04-15T07:14:46.429Z,69.84
2017-04-15T07:15:46.424Z,67.46
2017-04-15T07:16:46.419Z,64.5
2017-04-15T07:17:46.411Z,62.97
2017-04-15T07:18:46.403Z,62.02
2017-04-15T07:19:46.395Z,62.11
2017-04-15T07:20:46.389Z,62.59
2017-04-15T07:21:46.383Z,65.64
2017-04-15T07:22:46.375Z,62.78
2017-04-15T07:23:46.369Z,61.92
2017-04-15T07:24:46.359Z,62.11
2017-04-15T07:25:46.356Z,62.78
2017-04-15T07:26:46.350Z,62.49
2017-04-15T07:27:46.348Z,62.21
2017-04-15T07:28:46.027Z,62.3
2017-04-15T07:29:46.329Z,60.3
2017-04-15T07:30:46.322Z,59.44
2017-04-15T07:31:46.315Z,59.25
2017-04-15T07:32:46.312Z,61.25
2017-04-15T07:33:46.306Z,61
2017-04-15T07:34:46.296Z,59.28
2017-04-15T07:35:46.289Z,59.85
2017-04-15T07:36:46.282Z,60.42
2017-04-15T07:37:45.962Z,59.09
2017-04-15T07:38:46.269Z,58.8
2017-04-15T07:39:46.263Z,58.61
2017-04-15T07:40:46.256Z,55.55
2017-04-15T07:41:45.934Z,54.13
2017-04-15T07:42:46.247Z,58.87
2017-04-15T07:43:46.237Z,58.2
2017-04-15T07:44:46.232Z,58.11
2017-04-15T07:45:46.230Z,58.2
2017-04-15T07:46:46.217Z,58.58
2017-04-15T07:47:46.213Z,59.99
2017-04-15T07:48:46.205Z,59.03
2017-04-15T07:49:46.199Z,60.17
2017-04-15T07:50:46.195Z,60.17
2017-04-15T07:51:46.189Z,60.55
2017-04-15T07:52:46.181Z,59.6
2017-04-15T07:53:46.176Z,57.79
2017-04-15T07:54:46.167Z,56.93
2017-04-15T07:55:46.159Z,57.7
2017-04-15T07:56:46.153Z,60.08
2017-04-15T07:57:46.149Z,59.79
2017-04-15T07:58:46.141Z,60.17
2017-04-15T07:59:46.133Z,58.26
2017-04-15T08:00:46.128Z,56.65
2017-04-15T08:01:46.124Z,56.84
2017-04-15T08:02:46.120Z,58.26
2017-04-15T08:03:46.107Z,59.12
2017-04-15T08:04:46.103Z,59.38
2017-04-15T08:05:46.096Z,60.17
2017-04-15T08:06:46.089Z,60.84
2017-04-15T08:07:46.081Z,60.81
2017-04-15T08:08:46.080Z,60.94
2017-04-15T08:09:46.069Z,61.22
2017-04-15T08:10:46.062Z,61.6
2017-04-15T08:11:46.054Z,63.23
2017-04-15T08:12:46.049Z,61.8
2017-04-15T08:13:46.044Z,61.13
2017-04-15T08:14:46.035Z,60.94
2017-04-15T08:15:46.030Z,61.6
2017-04-15T08:16:45.709Z,58.65
2017-04-15T08:17:46.016Z,59.03
2017-04-15T08:18:46.007Z,59.53
2017-04-15T08:19:46.002Z,59.06
2017-04-15T08:20:45.996Z,58.68
2017-04-15T08:21:45.989Z,58.29
2017-04-15T08:22:45.983Z,60.21
2017-04-15T08:23:45.664Z,58.23
2017-04-15T08:24:45.972Z,57.09
2017-04-15T08:25:45.963Z,58.99
2017-04-15T08:26:45.958Z,58.11
2017-04-15T08:27:45.955Z,55.82
2017-04-15T08:28:45.949Z,56.96
2017-04-15T08:29:45.940Z,55.53
2017-04-15T08:30:45.621Z,57.43
2017-04-15T08:31:45.613Z,58.68
2017-04-15T08:32:45.929Z,57.92
2017-04-15T08:33:45.915Z,58.84
2017-04-15T08:34:45.911Z,58.46
2017-04-15T08:35:45.904Z,60.21
2017-04-15T08:36:45.905Z,60.11
2017-04-15T08:37:45.893Z,56.01
2017-04-15T08:38:45.886Z,56.48
2017-04-15T08:39:45.880Z,56.58
2017-04-15T08:40:45.880Z,57.24
2017-04-15T08:41:45.866Z,58.55
2017-04-15T08:42:45.863Z,58.36
2017-04-15T08:43:45.855Z,58.55
2017-04-15T08:44:45.881Z,58.87
2017-04-15T08:45:45.847Z,59.92
2017-04-15T08:46:45.840Z,59.06
2017-04-15T08:47:45.832Z,60.87
2017-04-15T08:48:45.825Z,59.63
2017-04-15T08:49:45.829Z,58.11
2017-04-15T08:50:45.815Z,58.48
2017-04-15T08:51:45.806Z,59.53
2017-04-15T08:52:45.932Z,60.04
2017-04-15T08:53:45.482Z,59.19
2017-04-15T08:54:45.790Z,56.32
2017-04-15T08:55:45.786Z,56.99
2017-04-15T08:56:45.778Z,56.89
2017-04-15T08:57:45.772Z,57.46
2017-04-15T08:58:45.769Z,58.07
2017-04-15T08:59:45.758Z,56.25
2017-04-15T09:00:45.752Z,55.4
2017-04-15T09:01:45.751Z,56.06
2017-04-15T09:02:45.747Z,55.49
2017-04-15T09:03:45.750Z,55.2
2017-04-15T09:04:45.419Z,54.25
2017-04-15T09:05:45.727Z,55.2
2017-04-15T09:06:45.721Z,55.2
2017-04-15T09:07:45.716Z,55.01
2017-04-15T09:08:45.713Z,54.44
2017-04-15T09:09:45.777Z,54.06
2017-04-15T09:10:45.704Z,54.7
2017-04-15T09:11:45.697Z,54.7
2017-04-15T09:12:45.689Z,55.84
2017-04-15T09:13:45.687Z,55.55
2017-04-15T09:14:45.678Z,54.99
2017-04-15T09:15:45.367Z,55.46
2017-04-15T09:16:45.667Z,56.7
2017-04-15T09:17:45.663Z,58.14
2017-04-15T09:18:45.659Z,58.7
2017-04-15T09:19:45.650Z,56.32
2017-04-15T09:20:45.647Z,54.7
2017-04-15T09:21:45.640Z,56.89
2017-04-15T09:22:45.637Z,54.77
2017-04-15T09:23:45.640Z,56.58
2017-04-15T09:24:45.626Z,55.84
2017-04-15T09:25:45.621Z,58.23
2017-04-15T09:26:45.613Z,54.79
2017-04-15T09:27:45.617Z,54.6
2017-04-15T09:28:45.605Z,55.84
2017-04-15T09:29:45.598Z,56.23
2017-04-15T09:30:45.594Z,56.25
2017-04-15T09:31:45.588Z,55.68
2017-04-15T09:32:45.270Z,57.02
2017-04-15T09:33:45.576Z,56.85
2017-04-15T09:34:45.257Z,55.13
2017-04-15T09:35:45.566Z,54.08
2017-04-15T09:36:45.563Z,51.86
2017-04-15T09:37:45.556Z,51.19
2017-04-15T09:38:45.550Z,51.57
2017-04-15T09:39:45.570Z,52.88
2017-04-15T09:40:45.228Z,54.03
2017-04-15T09:41:45.534Z,56.04
2017-04-15T09:42:45.531Z,54.7
2017-04-15T09:43:45.524Z,54.99
2017-04-15T09:44:45.518Z,54.13
2017-04-15T09:45:45.513Z,52.98
2017-04-15T09:46:45.507Z,55.75
2017-04-15T09:47:45.503Z,55.46
2017-04-15T09:48:45.501Z,54.03
2017-04-15T09:49:45.495Z,55.84
2017-04-15T09:50:45.173Z,54.44
2017-04-15T09:51:45.486Z,53.1
2017-04-15T09:52:45.479Z,53.29
2017-04-15T09:53:45.160Z,53.29
2017-04-15T09:54:45.467Z,54.63
2017-04-15T09:55:45.462Z,55.2
2017-04-15T09:56:45.460Z,56.63
2017-04-15T09:57:45.453Z,55.96
2017-04-15T09:58:45.449Z,55.3
2017-04-15T09:59:45.444Z,54.53
2017-04-15T10:00:45.436Z,52.81
2017-04-15T10:01:45.433Z,53.1
2017-04-15T10:02:45.428Z,52.53
2017-04-15T10:03:45.113Z,51.95
2017-04-15T10:04:45.414Z,52.05
2017-04-15T10:05:45.096Z,53.29
2017-04-15T10:06:45.408Z,52.53
2017-04-15T10:07:45.403Z,52.43
2017-04-15T10:08:45.399Z,52.15
2017-04-15T10:09:45.392Z,51.09
2017-04-15T10:10:45.391Z,52.62
2017-04-15T10:11:45.382Z,51.21
2017-04-15T10:12:45.375Z,51.79
2017-04-15T10:13:45.378Z,51.95
2017-04-15T10:14:45.366Z,52.53
2017-04-15T10:15:45.366Z,52.53
2017-04-15T10:16:45.358Z,52.62
2017-04-15T10:17:45.352Z,54.03
2017-04-15T10:18:45.352Z,55.94
2017-04-15T10:19:45.345Z,54.03
2017-04-15T10:20:45.341Z,54.41
2017-04-15T10:21:45.335Z,55.53
2017-04-15T10:22:45.329Z,56.77
2017-04-15T10:23:45.325Z,56.96
2017-04-15T10:24:45.321Z,56.67
2017-04-15T10:25:45.313Z,56.67
2017-04-15T10:26:45.308Z,56.58
2017-04-15T10:27:45.300Z,57.92
2017-04-15T10:28:45.299Z,58.2
2017-04-15T10:29:45.291Z,58.84
2017-04-15T10:30:45.283Z,58.11
2017-04-15T10:31:45.278Z,58.58
2017-04-15T10:32:45.277Z,58.2
2017-04-15T10:33:45.270Z,58.01
2017-04-15T10:34:45.263Z,57.72
2017-04-15T10:35:45.258Z,58.68
2017-04-15T10:36:45.268Z,58.58
2017-04-15T10:37:45.246Z,58.2
2017-04-15T10:38:45.240Z,58.29
2017-04-15T10:39:45.235Z,58.39
2017-04-15T10:40:45.230Z,58.01
2017-04-15T10:41:45.237Z,56.87
2017-04-15T10:42:45.223Z,58.2
2017-04-15T10:43:45.215Z,58.29
2017-04-15T10:44:45.205Z,60.3
2017-04-15T10:45:45.201Z,60.68
2017-04-15T10:46:45.197Z,61.25
2017-04-15T10:47:45.189Z,59.92
2017-04-15T10:48:45.184Z,58.23
2017-04-15T10:49:45.274Z,59.09
2017-04-15T10:50:45.172Z,59.85
2017-04-15T10:51:44.854Z,60.24
2017-04-15T10:52:45.161Z,59.85
2017-04-15T10:53:44.842Z,59.12
2017-04-15T10:54:44.837Z,59.22
2017-04-15T10:55:45.145Z,59.98
2017-04-15T10:56:45.150Z,56.73
2017-04-15T10:57:45.210Z,56.92
2017-04-15T10:58:45.133Z,59.31
2017-04-15T10:59:45.124Z,58.8
2017-04-15T11:00:45.122Z,60.14
2017-04-15T11:01:45.116Z,58.99
2017-04-15T11:02:45.109Z,59.19
2017-04-15T11:03:45.108Z,60.61
2017-04-15T11:04:45.101Z,60.71
2017-04-15T11:05:45.100Z,61.73
2017-04-15T11:06:45.089Z,63.45
2017-04-15T11:07:44.771Z,63.83
2017-04-15T11:08:44.764Z,62.24
2017-04-15T11:09:45.076Z,61.86
2017-04-15T11:10:45.068Z,61.86
2017-04-15T11:11:45.062Z,61.1
2017-04-15T11:12:45.060Z,62.21
2017-04-15T11:13:45.052Z,64.12
2017-04-15T11:14:45.045Z,67.27
2017-04-15T11:15:45.041Z,68.41
2017-04-15T11:16:45.038Z,69.46
2017-04-15T11:17:45.038Z,68.12
2017-04-15T11:18:44.715Z,69.23
2017-04-15T11:19:45.019Z,70.67
2017-04-15T11:20:45.014Z,73.05
2017-04-15T11:21:45.007Z,74.67
2017-04-15T11:22:45.109Z,77.15
2017-04-15T11:23:44.995Z,80.49
2017-04-15T11:24:44.990Z,82.49
2017-04-15T11:25:44.981Z,85.21
2017-04-15T11:26:44.978Z,86.65
2017-04-15T11:27:44.974Z,90.74
2017-04-15T11:28:44.965Z,92.93
2017-04-15T11:29:44.962Z,93.32
2017-04-15T11:30:44.953Z,94.17
2017-04-15T11:31:44.947Z,94.56
2017-04-15T11:32:44.943Z,99.99
2017-04-15T11:33:44.937Z,99.99
2017-04-15T11:34:44.928Z,99.99
2017-04-15T11:35:44.922Z,99.99
2017-04-15T11:36:44.598Z,99.99
2017-04-15T11:37:44.910Z,99.99
2017-04-15T11:38:44.905Z,99.99
2017-04-15T11:39:44.894Z,99.99
2017-04-15T11:40:44.887Z,99.99
2017-04-15T11:41:44.881Z,99.99
2017-04-15T11:42:44.875Z,99.99
2017-04-15T11:43:44.866Z,99.99
2017-04-15T11:44:44.860Z,99.99
2017-04-15T11:45:44.853Z,99.99
2017-04-15T11:46:44.844Z,99.99
2017-04-15T11:47:44.840Z,99.99
2017-04-15T11:48:44.832Z,99.99
2017-04-15T11:49:44.825Z,99.99
2017-04-15T11:50:44.502Z,99.99
2017-04-15T11:51:44.815Z,99.99
2017-04-15T11:52:44.804Z,99.99
2017-04-15T11:53:44.798Z,99.99
2017-04-15T11:54:44.788Z,99.99
2017-04-15T11:55:44.784Z,99.99
2017-04-15T11:56:44.776Z,99.99
2017-04-15T11:57:44.775Z,99.99
2017-04-15T11:58:44.764Z,99.99
2017-04-15T11:59:44.753Z,99.99
2017-04-15T12:00:44.748Z,99.99
2017-04-15T12:01:44.737Z,99.99
2017-04-15T12:02:44.734Z,99.99
2017-04-15T12:03:44.727Z,99.99
2017-04-15T12:04:44.723Z,99.99
2017-04-15T12:05:44.710Z,99.99
2017-04-15T12:06:44.703Z,99.99
2017-04-15T12:07:44.705Z,99.99
2017-04-15T12:08:44.379Z,99.99
2017-04-15T12:09:44.684Z,99.99
2017-04-15T12:10:44.679Z,99.99
2017-04-15T12:11:44.672Z,99.99
2017-04-15T12:12:44.664Z,99.99
2017-04-15T12:13:44.660Z,99.99
2017-04-15T12:14:44.652Z,99.99
2017-04-15T12:15:44.643Z,99.99
2017-04-15T12:16:44.328Z,99.99
2017-04-15T12:17:44.633Z,99.99
2017-04-15T12:18:44.626Z,99.99
2017-04-15T12:19:44.617Z,99.99
2017-04-15T12:20:44.311Z,99.99
2017-04-15T12:21:44.605Z,99.99
2017-04-15T12:22:44.599Z,99.99
2017-04-15T12:23:44.590Z,99.99
2017-04-15T12:24:44.584Z,99.99
2017-04-15T12:25:44.264Z,99.99
2017-04-15T12:26:44.569Z,99.99
2017-04-15T12:27:44.251Z,99.99
2017-04-15T12:28:44.322Z,99.99
2017-04-15T12:29:44.551Z,99.99
2017-04-15T12:30:44.545Z,99.99
2017-04-15T12:31:44.222Z,99.99
2017-04-15T12:32:44.536Z,99.99
2017-04-15T12:33:44.524Z,99.99
2017-04-15T12:34:44.515Z,99.99
2017-04-15T12:35:44.509Z,99.99
2017-04-15T12:36:44.499Z,99.99
2017-04-15T12:37:44.177Z,99.99
2017-04-15T12:38:44.489Z,99.99
2017-04-15T12:39:44.479Z,99.99
2017-04-15T12:40:44.473Z,99.99
2017-04-15T12:41:44.463Z,99.99
2017-04-15T12:42:44.461Z,99.99
2017-04-15T12:43:44.451Z,99.99
2017-04-15T12:44:44.441Z,99.99
2017-04-15T12:45:44.436Z,99.99
2017-04-15T12:46:44.427Z,99.99
2017-04-15T12:47:44.111Z,99.99
2017-04-15T12:48:44.414Z,99.99
2017-04-15T12:49:44.403Z,99.99
2017-04-15T12:50:44.397Z,99.99
2017-04-15T12:51:44.391Z,99.99
2017-04-15T12:52:44.382Z,99.99
2017-04-15T12:53:44.571Z,99.99